Time;durP1;ratioP1;P1;durP2;ratioP2;P2;SDS_P1;SDS_P2;PMS_P1;PMS_P2;Temp;Humidity;BMP_temperature;BMP_pressure;BME280_temperature;BME280_humidity;BME280_pressure;Samples;Min_cycle;Max_cycle;Signal;HPM_P1;HPM_P2
2022/06/21 00:01:14;;;;;;;;;;;;;;;-146.27;100.00;64033.13;5091087;28;19912;-47
2022/06/21 00:03:40;;;;;;;;;;;;;;;-146.27;100.00;64033.13;5090105;28;19912;-48
2022/06/21 00:06:05;;;;;;;;;;;;;;;-146.27;100.00;64033.13;5091637;28;20364;-50
2022/06/21 00:08:34;;;;;;;;;;;;;;;-146.27;100.00;64033.13;5091060;28;19912;-47
2022/06/21 00:11:01;;;;;;;;;;;;;;;-146.27;100.00;64033.13;5091403;28;20340;-51
2022/06/21 00:13:29;;;;;;;;;;;;;;;-146.27;100.00;64033.13;5091396;28;19919;-50
2022/06/21 00:15:59;;;;;;;;;;;;;;;-146.27;100.00;64033.13;5091612;28;19943;-48
2022/06/21 00:18:25;;;;;;;;;;;;;;;-146.27;100.00;64033.13;5089954;28;20253;-48
2022/06/21 00:20:51;;;;;;;;;;;;;;;-146.27;100.00;64033.13;5100884;28;19912;-48
2022/06/21 00:23:19;;;;;;;;;;;;;;;-146.27;100.00;64033.13;5111582;28;19918;-48
2022/06/21 00:25:46;;;;;;;;;;;;;;;-146.27;100.00;64033.13;5111289;28;19962;-47
2022/06/21 00:28:12;;;;;;;;;;;;;;;-146.27;100.00;64033.13;5111163;28;20329;-48
2022/06/21 00:30:39;;;;;;;;;;;;;;;-146.27;100.00;64033.13;5111457;28;19927;-50
2022/06/21 00:33:07;;;;;;;;;;;;;;;-146.27;100.00;64033.13;5111266;28;19915;-48
2022/06/21 00:35:33;;;;;;;;;;;;;;;-146.27;100.00;64033.13;5111262;28;19958;-49
2022/06/21 00:37:58;;;;;;;;;;;;;;;-146.27;100.00;64033.13;5111391;28;20367;-51
2022/06/21 00:40:23;;;;;;;;;;;;;;;-146.27;100.00;64033.13;5111302;28;19934;-51
2022/06/21 00:42:53;;;;;;;;;;;;;;;-146.27;100.00;64033.13;5111082;28;19998;-48
2022/06/21 00:45:25;;;;;;;;;;;;;;;-146.27;100.00;64033.13;5110901;28;19916;-49
2022/06/21 00:47:52;;;;;;;;;;;;;;;-146.27;100.00;64033.13;5111932;28;19955;-49
2022/06/21 00:50:30;;;;;;;;;;;;;;;-146.27;100.00;64033.13;5117694;28;20324;-49
2022/06/21 00:52:58;;;;;;;;;;;;;;;-146.27;100.00;64033.13;5118046;28;19924;-51
2022/06/21 00:55:32;;;;;;;;;;;;;;;-146.27;100.00;64033.13;5117863;28;19948;-50
2022/06/21 00:57:57;;;;;;;;;;;;;;;-146.27;100.00;64033.13;5117935;27;19931;-49
2022/06/21 01:00:25;;;;;;;;;;;;;;;-146.27;100.00;64033.13;5118305;28;19911;-48
2022/06/21 01:02:50;;;;;;;;;;;;;;;-146.27;100.00;64033.13;5117848;28;19935;-48
2022/06/21 01:05:16;;;;;;;;;;;;;;;-146.27;100.00;64033.13;5117111;28;19974;-52
2022/06/21 01:07:42;;;;;;;;;;;;;;;-146.27;100.00;64033.13;5097032;28;20432;-48
2022/06/21 01:10:09;;;;;;;;;;;;;;;-146.27;100.00;64033.13;5097399;28;19923;-47
2022/06/21 01:12:38;;;;;;;;;;;;;;;-146.27;100.00;64033.13;5097295;28;20396;-47
2022/06/21 01:15:08;;;;;;;;;;;;;;;-146.27;100.00;64033.13;5097712;28;20356;-48
2022/06/21 01:17:35;;;;;;;;;;;;;;;-146.27;100.00;64033.13;5097485;28;19919;-49
2022/06/21 01:20:03;;;;;;;;;;;;;;;-146.27;100.00;64033.13;5100165;28;19951;-48
2022/06/21 01:22:28;;;;;;;;;;;;;;;-146.27;100.00;64033.13;5117831;28;19912;-48
2022/06/21 01:25:14;;;;;;;;;;;;;;;-146.27;100.00;64033.13;5117789;28;19976;-48
2022/06/21 01:27:39;;;;;;;;;;;;;;;-146.27;100.00;64033.13;5117264;28;19915;-48
2022/06/21 01:30:05;;;;;;;;;;;;;;;-146.27;100.00;64033.13;5117253;27;19926;-49
2022/06/21 01:32:31;;;;;;;;;;;;;;;-146.27;100.00;64033.13;5117002;27;20445;-50
2022/06/21 01:34:56;;;;;;;;;;;;;;;-146.27;100.00;64033.13;5117848;28;20018;-49
2022/06/21 01:37:26;;;;;;;;;;;;;;;-146.27;100.00;64033.13;5117357;28;19912;-49
2022/06/21 01:39:55;;;;;;;;;;;;;;;-146.27;100.00;64033.13;5117114;27;20010;-48
2022/06/21 01:42:25;;;;;;;;;;;;;;;-146.27;100.00;64033.13;5117400;27;20287;-49
2022/06/21 01:44:52;;;;;;;;;;;;;;;-146.27;100.00;64033.13;5117388;28;19915;-48
2022/06/21 01:47:21;;;;;;;;;;;;;;;-146.27;100.00;64033.13;5117526;28;19922;-49
2022/06/21 01:49:48;;;;;;;;;;;;;;;-146.27;100.00;64033.13;5117282;27;19912;-49
2022/06/21 01:52:16;;;;;;;;;;;;;;;-146.27;100.00;64033.13;5117665;28;20050;-48
2022/06/21 01:54:44;;;;;;;;;;;;;;;-146.27;100.00;64033.13;5117818;28;20448;-48
2022/06/21 01:57:12;;;;;;;;;;;;;;;-146.27;100.00;64033.13;5117448;28;19911;-48
2022/06/21 01:59:40;;;;;;;;;;;;;;;-146.27;100.00;64033.13;5115993;28;20413;-48
2022/06/21 02:02:11;;;;;;;;;;;;;;;-146.27;100.00;64033.13;5113631;28;19970;-47
2022/06/21 02:04:41;;;;;;;;;;;;;;;-146.27;100.00;64033.13;5114286;28;20364;-48
2022/06/21 02:07:07;;;;;;;;;;;;;;;-146.27;100.00;64033.13;5108953;28;19912;-48
2022/06/21 02:09:53;;;;;;;;;;;;;;;-146.27;100.00;64033.13;5094008;28;19912;-48
2022/06/21 02:12:18;;;;;;;;;;;;;;;-146.27;100.00;64033.13;5081789;28;19912;-49
2022/06/21 02:14:47;;;;;;;;;;;;;;;-146.27;100.00;64033.13;5093669;28;19912;-48
2022/06/21 02:17:16;;;;;;;;;;;;;;;-146.27;100.00;64033.13;5093605;28;19912;-48
2022/06/21 02:19:44;;;;;;;;;;;;;;;-146.27;100.00;64033.13;5093910;28;19916;-48
2022/06/21 02:22:11;;;;;;;;;;;;;;;-146.27;100.00;64033.13;5113752;28;19912;-48
2022/06/21 02:24:36;;;;;;;;;;;;;;;-146.27;100.00;64033.13;5114124;28;19915;-48
2022/06/21 02:27:02;;;;;;;;;;;;;;;-146.27;100.00;64033.13;5114001;28;20438;-47
2022/06/21 02:29:29;;;;;;;;;;;;;;;-146.27;100.00;64033.13;5113953;28;19922;-48
2022/06/21 02:31:54;;;;;;;;;;;;;;;-146.27;100.00;64033.13;5113250;28;19912;-48
2022/06/21 02:34:22;;;;;;;;;;;;;;;-146.27;100.00;64033.13;5113982;28;19916;-48
2022/06/21 02:36:53;;;;;;;;;;;;;;;-146.27;100.00;64033.13;5112513;28;19915;-47
2022/06/21 02:39:19;;;;;;;;;;;;;;;-146.27;100.00;64033.13;5114418;28;19984;-47
2022/06/21 02:41:48;;;;;;;;;;;;;;;-146.27;100.00;64033.13;5113537;28;19919;-48
2022/06/21 02:44:20;;;;;;;;;;;;;;;-146.27;100.00;64033.13;5113080;28;19915;-49
2022/06/21 02:46:48;;;;;;;;;;;;;;;-146.27;100.00;64033.13;5113732;28;19934;-47
2022/06/21 02:49:21;;;;;;;;;;;;;;;-146.27;100.00;64033.13;5113467;28;19912;-48
2022/06/21 02:52:09;;;;;;;;;;;;;;;-146.27;100.00;64033.13;5113347;28;19912;-49
2022/06/21 02:54:40;;;;;;;;;;;;;;;-146.27;100.00;64033.13;5113458;28;19998;-47
2022/06/21 02:57:18;;;;;;;;;;;;;;;-146.27;100.00;64033.13;5113530;28;19912;-47
2022/06/21 02:59:44;;;;;;;;;;;;;;;-146.27;100.00;64033.13;5113616;28;19950;-48
2022/06/21 03:02:11;;;;;;;;;;;;;;;-146.27;100.00;64033.13;5113016;28;19915;-46
2022/06/21 03:04:37;;;;;;;;;;;;;;;-146.27;100.00;64033.13;5112957;27;19916;-47
2022/06/21 03:07:03;;;;;;;;;;;;;;;-146.27;100.00;64033.13;5108048;28;19964;-48
2022/06/21 03:09:30;;;;;;;;;;;;;;;-146.27;100.00;64033.13;5092699;28;19912;-47
2022/06/21 03:11:59;;;;;;;;;;;;;;;-146.27;100.00;64033.13;5092449;28;19920;-47
2022/06/21 03:14:27;;;;;;;;;;;;;;;-146.27;100.00;64033.13;5092367;28;19916;-47
2022/06/21 03:16:54;;;;;;;;;;;;;;;-146.27;100.00;64033.13;5092424;28;20294;-47
2022/06/21 03:19:28;;;;;;;;;;;;;;;-146.27;100.00;64033.13;5092694;28;19935;-47
2022/06/21 03:21:54;;;;;;;;;;;;;;;-146.27;100.00;64033.13;5110775;28;20284;-48
2022/06/21 03:24:23;;;;;;;;;;;;;;;-146.27;100.00;64033.13;5112869;28;19923;-48
2022/06/21 03:26:53;;;;;;;;;;;;;;;-146.27;100.00;64033.13;5112397;28;19915;-47
2022/06/21 03:29:19;;;;;;;;;;;;;;;-146.27;100.00;64033.13;5112747;28;19919;-48
2022/06/21 03:31:48;;;;;;;;;;;;;;;-146.27;100.00;64033.13;5112591;28;20025;-47
2022/06/21 03:34:15;;;;;;;;;;;;;;;-146.27;100.00;64033.13;5112435;28;20314;-48
2022/06/21 03:36:41;;;;;;;;;;;;;;;-146.27;100.00;64033.13;5111984;28;20307;-47
2022/06/21 03:39:11;;;;;;;;;;;;;;;-146.27;100.00;64033.13;5112602;28;20420;-50
2022/06/21 03:41:43;;;;;;;;;;;;;;;-146.27;100.00;64033.13;5112023;28;20345;-48
2022/06/21 03:44:30;;;;;;;;;;;;;;;-146.27;100.00;64033.13;5112288;28;19919;-48
2022/06/21 03:47:00;;;;;;;;;;;;;;;-146.27;100.00;64033.13;5112083;28;19911;-49
2022/06/21 03:49:31;;;;;;;;;;;;;;;-146.27;100.00;64033.13;5112415;28;19998;-50
2022/06/21 03:51:57;;;;;;;;;;;;;;;-146.27;100.00;64033.13;5112253;28;19931;-47
2022/06/21 03:54:26;;;;;;;;;;;;;;;-146.27;100.00;64033.13;5112198;28;19912;-50
2022/06/21 03:57:21;;;;;;;;;;;;;;;-146.27;100.00;64033.13;5111992;28;19912;-49
2022/06/21 03:59:54;;;;;;;;;;;;;;;-146.27;100.00;64033.13;5106968;28;19918;-51
2022/06/21 04:02:23;;;;;;;;;;;;;;;-146.27;100.00;64033.13;5111964;28;20372;-51
2022/06/21 04:05:09;;;;;;;;;;;;;;;-146.27;100.00;64033.13;5111793;28;19919;-51
2022/06/21 04:07:37;;;;;;;;;;;;;;;-146.27;100.00;64033.13;5101736;28;19979;-51
2022/06/21 04:10:22;;;;;;;;;;;;;;;-146.27;100.00;64033.13;5090393;28;20372;-50
2022/06/21 04:12:50;;;;;;;;;;;;;;;-146.27;100.00;64033.13;5090277;28;19977;-49
2022/06/21 04:15:20;;;;;;;;;;;;;;;-146.27;100.00;64033.13;5090894;28;19913;-50
2022/06/21 04:17:51;;;;;;;;;;;;;;;-146.27;100.00;64033.13;5091147;28;20007;-51
2022/06/21 04:20:27;;;;;;;;;;;;;;;-146.27;100.00;64033.13;5090237;28;19969;-52
2022/06/21 04:22:52;;;;;;;;;;;;;;;-146.27;100.00;64033.13;5089814;28;19920;-50
2022/06/21 04:25:20;;;;;;;;;;;;;;;-146.27;100.00;64033.13;5090441;28;19924;-51
2022/06/21 04:27:54;;;;;;;;;;;;;;;-146.27;100.00;64033.13;5090750;28;19974;-51
2022/06/21 04:30:40;;;;;;;;;;;;;;;-146.27;100.00;64033.13;5080220;28;19928;-50
2022/06/21 04:33:05;;;;;;;;;;;;;;;-146.27;100.00;64033.13;5070374;28;19920;-51
2022/06/21 04:35:33;;;;;;;;;;;;;;;-146.27;100.00;64033.13;5084581;28;19981;-49
2022/06/21 04:38:02;;;;;;;;;;;;;;;-146.27;100.00;64033.13;5087082;28;19935;-50
2022/06/21 04:40:39;;;;;;;;;;;;;;;-146.27;100.00;64033.13;5083852;28;19927;-50
2022/06/21 04:43:12;;;;;;;;;;;;;;;-146.27;100.00;64033.13;5090606;28;19912;-51
2022/06/21 04:45:47;;;;;;;;;;;;;;;-146.27;100.00;64033.13;5090309;28;19920;-48
2022/06/21 04:48:21;;;;;;;;;;;;;;;-146.27;100.00;64033.13;5090383;28;19912;-50
2022/06/21 04:50:49;;;;;;;;;;;;;;;-146.27;100.00;64033.13;5089856;28;19969;-51
2022/06/21 04:53:19;;;;;;;;;;;;;;;-146.27;100.00;64033.13;5089943;28;20304;-50
2022/06/21 04:55:53;;;;;;;;;;;;;;;-146.27;100.00;64033.13;5089211;28;19924;-49
2022/06/21 04:58:18;;;;;;;;;;;;;;;-146.27;100.00;64033.13;5088844;28;19924;-52
2022/06/21 05:00:44;;;;;;;;;;;;;;;-146.27;100.00;64033.13;5088479;28;19912;-50
2022/06/21 05:03:26;;;;;;;;;;;;;;;-146.27;100.00;64033.13;5088115;28;19995;-50
2022/06/21 05:05:51;;;;;;;;;;;;;;;-146.27;100.00;64033.13;5088631;28;19916;-49
2022/06/21 05:08:19;;;;;;;;;;;;;;;-146.27;100.00;64033.13;5088830;28;19920;-48
2022/06/21 05:10:47;;;;;;;;;;;;;;;-146.27;100.00;64033.13;5089322;28;19928;-50
2022/06/21 05:13:18;;;;;;;;;;;;;;;-146.27;100.00;64033.13;5089743;28;19912;-51
2022/06/21 05:15:44;;;;;;;;;;;;;;;-146.27;100.00;64033.13;5087836;28;19912;-51
2022/06/21 05:18:29;;;;;;;;;;;;;;;-146.27;100.00;64033.13;5089641;28;20414;-51
2022/06/21 05:20:58;;;;;;;;;;;;;;;-146.27;100.00;64033.13;5100475;28;19912;-52
2022/06/21 05:23:25;;;;;;;;;;;;;;;-146.27;100.00;64033.13;5109910;28;20438;-50
2022/06/21 05:25:50;;;;;;;;;;;;;;;-146.27;100.00;64033.13;5109952;28;19916;-50
2022/06/21 05:28:16;;;;;;;;;;;;;;;-146.27;100.00;64033.13;5110127;28;20243;-48
2022/06/21 05:30:44;;;;;;;;;;;;;;;-146.27;100.00;64033.13;5110519;28;19922;-51
2022/06/21 05:33:16;;;;;;;;;;;;;;;-146.27;100.00;64033.13;5109893;28;19922;-50
2022/06/21 05:35:42;;;;;;;;;;;;;;;-146.27;100.00;64033.13;5111802;28;19930;-50
2022/06/21 05:38:15;;;;;;;;;;;;;;;-146.27;100.00;64033.13;5112645;28;20015;-51
2022/06/21 05:40:53;;;;;;;;;;;;;;;-146.27;100.00;64033.13;5114107;28;19911;-48
2022/06/21 05:43:39;;;;;;;;;;;;;;;-146.27;100.00;64033.13;5114433;28;19912;-50
2022/06/21 05:46:09;;;;;;;;;;;;;;;-146.27;100.00;64033.13;5113773;28;19922;-51
2022/06/21 05:48:37;;;;;;;;;;;;;;;-146.27;100.00;64033.13;5113699;28;19918;-49
2022/06/21 05:51:03;;;;;;;;;;;;;;;-146.27;100.00;64033.13;5114004;28;20375;-48
2022/06/21 05:53:40;;;;;;;;;;;;;;;-146.27;100.00;64033.13;5113961;27;19943;-49
2022/06/21 05:56:10;;;;;;;;;;;;;;;-146.27;100.00;64033.13;5113293;28;19912;-48
2022/06/21 05:58:37;;;;;;;;;;;;;;;-146.27;100.00;64033.13;5109730;28;19931;-48
2022/06/21 06:01:06;;;;;;;;;;;;;;;-146.27;100.00;64033.13;5094625;28;20299;-49
2022/06/21 06:03:41;;;;;;;;;;;;;;;-146.27;100.00;64033.13;5098355;28;19923;-52
2022/06/21 06:06:11;;;;;;;;;;;;;;;-146.27;100.00;64033.13;5099114;28;19927;-51
2022/06/21 06:08:43;;;;;;;;;;;;;;;-146.27;100.00;64033.13;5092693;28;19969;-50
2022/06/21 06:11:20;;;;;;;;;;;;;;;-146.27;100.00;64033.13;5092419;28;19969;-52
2022/06/21 06:13:47;;;;;;;;;;;;;;;-146.27;100.00;64033.13;5090685;28;19912;-49
2022/06/21 06:16:24;;;;;;;;;;;;;;;-146.27;100.00;64033.13;5090977;28;19916;-50
2022/06/21 06:18:53;;;;;;;;;;;;;;;-146.27;100.00;64033.13;5093009;28;19927;-51
2022/06/21 06:21:30;;;;;;;;;;;;;;;-146.27;100.00;64033.13;5103266;28;19920;-50
2022/06/21 06:24:01;;;;;;;;;;;;;;;-146.27;100.00;64033.13;5101071;28;19946;-51
2022/06/21 06:26:32;;;;;;;;;;;;;;;-146.27;100.00;64033.13;5102535;28;19919;-50
2022/06/21 06:29:04;;;;;;;;;;;;;;;-146.27;100.00;64033.13;5098133;28;19924;-51
2022/06/21 06:31:32;;;;;;;;;;;;;;;-146.27;100.00;64033.13;5103082;28;20359;-51
2022/06/21 06:34:09;;;;;;;;;;;;;;;-146.27;100.00;64033.13;5092861;28;19916;-52
2022/06/21 06:36:38;;;;;;;;;;;;;;;-146.27;100.00;64033.13;5092385;28;19924;-50
2022/06/21 06:39:27;;;;;;;;;;;;;;;-146.27;100.00;64033.13;5091227;28;20218;-50
2022/06/21 06:41:59;;;;;;;;;;;;;;;-146.27;100.00;64033.13;5092369;28;19916;-51
2022/06/21 06:44:27;;;;;;;;;;;;;;;-146.27;100.00;64033.13;5092692;28;19917;-51
2022/06/21 06:46:52;;;;;;;;;;;;;;;-146.27;100.00;64033.13;5092142;28;20379;-51
2022/06/21 06:49:18;;;;;;;;;;;;;;;-146.27;100.00;64033.13;5092303;28;19946;-52
2022/06/21 06:51:43;;;;;;;;;;;;;;;-146.27;100.00;64033.13;5092473;28;20300;-51
2022/06/21 06:54:31;;;;;;;;;;;;;;;-146.27;100.00;64033.13;5092612;28;19958;-51
2022/06/21 06:57:20;;;;;;;;;;;;;;;-146.27;100.00;64033.13;5092172;28;19996;-50
2022/06/21 06:59:45;;;;;;;;;;;;;;;-146.27;100.00;64033.13;5091782;28;19959;-53
2022/06/21 07:02:18;;;;;;;;;;;;;;;-146.27;100.00;64033.13;5092006;28;19912;-52
2022/06/21 07:04:45;;;;;;;;;;;;;;;-146.27;100.00;64033.13;5092238;28;20440;-52
2022/06/21 07:07:20;;;;;;;;;;;;;;;-146.27;100.00;64033.13;5091696;28;20022;-51
2022/06/21 07:09:51;;;;;;;;;;;;;;;-146.27;100.00;64033.13;5091770;28;19926;-52
2022/06/21 07:12:18;;;;;;;;;;;;;;;-146.27;100.00;64033.13;5092350;28;19916;-51
2022/06/21 07:14:45;;;;;;;;;;;;;;;-146.27;100.00;64033.13;5091676;28;19963;-51
2022/06/21 07:17:27;;;;;;;;;;;;;;;-146.27;100.00;64033.13;5092110;28;20439;-51
2022/06/21 07:19:53;;;;;;;;;;;;;;;-146.27;100.00;64033.13;5092445;28;19962;-51
2022/06/21 07:22:20;;;;;;;;;;;;;;;-146.27;100.00;64033.13;5110734;28;19976;-52
2022/06/21 07:24:50;;;;;;;;;;;;;;;-146.27;100.00;64033.13;5110004;28;19915;-52
2022/06/21 07:27:17;;;;;;;;;;;;;;;-146.27;100.00;64033.13;5109917;28;19919;-52
2022/06/21 07:29:51;;;;;;;;;;;;;;;-146.27;100.00;64033.13;5109880;28;19912;-52
2022/06/21 07:32:20;;;;;;;;;;;;;;;-146.27;100.00;64033.13;5109752;28;19965;-51
2022/06/21 07:34:48;;;;;;;;;;;;;;;-146.27;100.00;64033.13;5109823;28;20026;-51
2022/06/21 07:37:17;;;;;;;;;;;;;;;-146.27;100.00;64033.13;5110577;28;20334;-54
2022/06/21 07:39:49;;;;;;;;;;;;;;;-146.27;100.00;64033.13;5111646;28;20003;-52
2022/06/21 07:42:17;;;;;;;;;;;;;;;-146.27;100.00;64033.13;5111000;28;20356;-52
2022/06/21 07:44:45;;;;;;;;;;;;;;;-146.27;100.00;64033.13;5111447;28;19916;-50
2022/06/21 07:47:32;;;;;;;;;;;;;;;-146.27;100.00;64033.13;5111550;28;19918;-52
2022/06/21 07:50:18;;;;;;;;;;;;;;;-146.27;100.00;64033.13;5107346;28;19911;-52
2022/06/21 07:52:56;;;;;;;;;;;;;;;-146.27;100.00;64033.13;5110512;28;19923;-50
2022/06/21 07:55:25;;;;;;;;;;;;;;;-146.27;100.00;64033.13;5111440;28;19912;-52
2022/06/21 07:57:54;;;;;;;;;;;;;;;-146.27;100.00;64033.13;5110505;28;19943;-52
2022/06/21 08:00:21;;;;;;;;;;;;;;;-146.27;100.00;64033.13;5111723;28;20047;-52
2022/06/21 08:08:44;;;;;;;;;;;;;;;-146.27;100.00;64033.13;5092953;28;19961;-51
2022/06/21 08:11:12;;;;;;;;;;;;;;;-146.27;100.00;64033.13;5090620;28;19912;-52
2022/06/21 08:13:37;;;;;;;;;;;;;;;-146.27;100.00;64033.13;5090339;28;19935;-52
2022/06/21 08:16:21;;;;;;;;;;;;;;;-146.27;100.00;64033.13;5090975;28;20303;-52
2022/06/21 08:19:16;;;;;;;;;;;;;;;-146.27;100.00;64033.13;5090858;28;19912;-51
2022/06/21 08:21:47;;;;;;;;;;;;;;;-146.27;100.00;64033.13;5102481;28;19912;-52
2022/06/21 08:24:17;;;;;;;;;;;;;;;-146.27;100.00;64033.13;5111032;28;20303;-52
2022/06/21 08:26:46;;;;;;;;;;;;;;;-146.27;100.00;64033.13;5111155;28;19919;-52
2022/06/21 08:29:20;;;;;;;;;;;;;;;-146.27;100.00;64033.13;5111429;28;19912;-52
2022/06/21 08:31:49;;;;;;;;;;;;;;;-146.27;100.00;64033.13;5110491;28;19912;-51
2022/06/21 08:34:33;;;;;;;;;;;;;;;-146.27;100.00;64033.13;5111104;28;20293;-51
2022/06/21 08:37:04;;;;;;;;;;;;;;;-146.27;100.00;64033.13;5111096;28;19923;-51
2022/06/21 08:39:41;;;;;;;;;;;;;;;-146.27;100.00;64033.13;5110669;28;19975;-52
2022/06/21 08:42:24;;;;;;;;;;;;;;;-146.27;100.00;64033.13;5110693;28;19943;-51
2022/06/21 08:48:05;;;;;;;;;;;;;;;-146.27;100.00;64033.13;5110565;28;19965;-52
2022/06/21 08:50:40;;;;;;;;;;;;;;;-146.27;100.00;64033.13;5110232;28;19934;-52
2022/06/21 08:53:13;;;;;;;;;;;;;;;-146.27;100.00;64033.13;5109921;28;19950;-52
2022/06/21 08:55:53;;;;;;;;;;;;;;;-146.27;100.00;64033.13;5110309;28;19966;-52
2022/06/21 08:58:25;;;;;;;;;;;;;;;-146.27;100.00;64033.13;5110527;28;20390;-52
2022/06/21 09:01:02;;;;;;;;;;;;;;;-146.27;100.00;64033.13;5110552;28;19918;-50
2022/06/21 09:03:27;;;;;;;;;;;;;;;-146.27;100.00;64033.13;5110492;28;19908;-52
2022/06/21 09:06:11;;;;;;;;;;;;;;;-146.27;100.00;64033.13;5110078;28;19916;-53
2022/06/21 09:08:55;;;;;;;;;;;;;;;-146.27;100.00;64033.13;5091906;28;19977;-52
2022/06/21 09:11:20;;;;;;;;;;;;;;;-146.27;100.00;64033.13;5093963;28;19935;-53
2022/06/21 09:14:04;;;;;;;;;;;;;;;-146.27;100.00;64033.13;5094082;28;20279;-51
2022/06/21 09:16:48;;;;;;;;;;;;;;;-146.27;100.00;64033.13;5094495;28;20024;-52
2022/06/21 09:19:16;;;;;;;;;;;;;;;-146.27;100.00;64033.13;5094185;28;19935;-52
2022/06/21 09:22:00;;;;;;;;;;;;;;;-146.27;100.00;64033.13;5110955;28;19912;-51
2022/06/21 09:24:25;;;;;;;;;;;;;;;-146.27;100.00;64033.13;5114719;28;20418;-54
2022/06/21 09:26:58;;;;;;;;;;;;;;;-146.27;100.00;64033.13;5114351;28;20410;-53
2022/06/21 09:29:45;;;;;;;;;;;;;;;-146.27;100.00;64033.13;5114356;28;20355;-56
2022/06/21 09:32:14;;;;;;;;;;;;;;;-146.27;100.00;64033.13;5114319;28;20006;-52
2022/06/21 09:34:51;;;;;;;;;;;;;;;-146.27;100.00;64033.13;5113782;28;19930;-49
2022/06/21 09:37:35;;;;;;;;;;;;;;;-146.27;100.00;64033.13;5113791;28;19915;-52
2022/06/21 09:40:06;;;;;;;;;;;;;;;-146.27;100.00;64033.13;5114065;28;19919;-50
2022/06/21 09:42:34;;;;;;;;;;;;;;;-146.27;100.00;64033.13;5114044;28;19962;-55
2022/06/21 09:45:06;;;;;;;;;;;;;;;-146.27;100.00;64033.13;5114029;27;19984;-52
2022/06/21 09:47:31;;;;;;;;;;;;;;;-146.27;100.00;64033.13;5114075;28;19941;-53
2022/06/21 09:50:04;;;;;;;;;;;;;;;-146.27;100.00;64033.13;5113675;28;19919;-50
2022/06/21 09:52:33;;;;;;;;;;;;;;;-146.27;100.00;64033.13;5114517;28;20002;-52
2022/06/21 09:55:01;;;;;;;;;;;;;;;-146.27;100.00;64033.13;5113739;28;20424;-52
2022/06/21 09:57:26;;;;;;;;;;;;;;;-146.27;100.00;64033.13;5113871;28;19994;-51
2022/06/21 09:59:51;;;;;;;;;;;;;;;-146.27;100.00;64033.13;5113250;28;20347;-51
2022/06/21 10:02:29;;;;;;;;;;;;;;;-146.27;100.00;64033.13;5113322;28;19919;-53
2022/06/21 10:04:57;;;;;;;;;;;;;;;-146.27;100.00;64033.13;5113533;28;19915;-50
2022/06/21 10:07:25;;;;;;;;;;;;;;;-146.27;100.00;64033.13;5105491;28;19984;-52
2022/06/21 10:09:50;;;;;;;;;;;;;;;-146.27;100.00;64033.13;5093115;28;19916;-52
2022/06/21 10:12:34;;;;;;;;;;;;;;;-146.27;100.00;64033.13;5092809;28;19935;-52
2022/06/21 10:15:05;;;;;;;;;;;;;;;-146.27;100.00;64033.13;5093448;28;19919;-53
2022/06/21 10:18:06;;;;;;;;;;;;;;;-146.27;100.00;64033.13;5093104;28;19926;-52
2022/06/21 10:20:42;;;;;;;;;;;;;;;-146.27;100.00;64033.13;5060361;28;19912;-52
2022/06/21 10:23:10;;;;;;;;;;;;;;;-146.27;100.00;64033.13;5109662;28;19912;-52
2022/06/21 10:25:42;;;;;;;;;;;;;;;-146.27;100.00;64033.13;5113507;28;19923;-51
2022/06/21 10:28:16;;;;;;;;;;;;;;;-146.27;100.00;64033.13;5113429;28;20353;-52
2022/06/21 10:30:52;;;;;;;;;;;;;;;-146.27;100.00;64033.13;5113525;28;19911;-52
2022/06/21 10:33:30;;;;;;;;;;;;;;;-146.27;100.00;64033.13;5113024;28;19915;-49
2022/06/21 10:35:58;;;;;;;;;;;;;;;-146.27;100.00;64033.13;5112700;28;20006;-52
2022/06/21 10:38:33;;;;;;;;;;;;;;;-146.27;100.00;64033.13;5113419;28;19912;-51
2022/06/21 10:40:58;;;;;;;;;;;;;;;-146.27;100.00;64033.13;5112659;28;20010;-51
2022/06/21 10:43:29;;;;;;;;;;;;;;;-146.27;100.00;64033.13;5113200;28;20052;-50
2022/06/21 10:46:08;;;;;;;;;;;;;;;-146.27;100.00;64033.13;5112835;28;19921;-51
2022/06/21 10:48:52;;;;;;;;;;;;;;;-146.27;100.00;64033.13;5112889;28;19912;-52
2022/06/21 10:51:36;;;;;;;;;;;;;;;-146.27;100.00;64033.13;5112586;28;19919;-51
2022/06/21 10:54:01;;;;;;;;;;;;;;;-146.27;100.00;64033.13;5112505;28;20348;-51
2022/06/21 10:57:09;;;;;;;;;;;;;;;-146.27;100.00;64033.13;5112733;28;20378;-51
2022/06/21 11:02:43;;;;;;;;;;;;;;;-146.27;100.00;64033.13;5112612;28;19961;-53
2022/06/21 11:05:25;;;;;;;;;;;;;;;-146.27;100.00;64033.13;5111956;28;19959;-50
2022/06/21 11:07:57;;;;;;;;;;;;;;;-146.27;100.00;64033.13;5083689;28;19912;-51
2022/06/21 11:10:29;;;;;;;;;;;;;;;-146.27;100.00;64033.13;5092592;28;19912;-52
2022/06/21 11:12:56;;;;;;;;;;;;;;;-146.27;100.00;64033.13;5092269;28;19985;-53
2022/06/21 11:15:21;;;;;;;;;;;;;;;-146.27;100.00;64033.13;5092041;28;20325;-52
2022/06/21 11:18:05;;;;;;;;;;;;;;;-146.27;100.00;64033.13;5091736;28;20002;-52
2022/06/21 11:20:41;;;;;;;;;;;;;;;-146.27;100.00;64033.13;5099115;28;19919;-51
2022/06/21 11:23:06;;;;;;;;;;;;;;;-146.27;100.00;64033.13;5112295;28;19939;-52
2022/06/21 11:25:37;;;;;;;;;;;;;;;-146.27;100.00;64033.13;5111865;28;19955;-50
2022/06/21 11:28:02;;;;;;;;;;;;;;;-146.27;100.00;64033.13;5112423;28;19912;-52
2022/06/21 11:30:28;;;;;;;;;;;;;;;-146.27;100.00;64033.13;5111964;28;19922;-51
2022/06/21 11:33:05;;;;;;;;;;;;;;;-146.27;100.00;64033.13;5112136;28;20384;-52
2022/06/21 11:35:35;;;;;;;;;;;;;;;-146.27;100.00;64033.13;5111577;28;19985;-51
2022/06/21 11:38:23;;;;;;;;;;;;;;;-146.27;100.00;64033.13;5111720;28;19912;-52
2022/06/21 11:42:04;;;;;;;;;;;;;;;-146.27;100.00;64033.13;5108835;28;20010;-53
2022/06/21 11:44:12;;;;;;;;;;;;;;;-146.27;100.00;64033.13;5106296;28;19919;-54
2022/06/21 11:46:45;;;;;;;;;;;;;;;-146.27;100.00;64033.13;5108155;28;19923;-53
2022/06/21 11:49:10;;;;;;;;;;;;;;;-146.27;100.00;64033.13;5091488;28;19967;-52
2022/06/21 11:52:11;;;;;;;;;;;;;;;-146.27;100.00;64033.13;5091800;28;20272;-53
2022/06/21 11:54:51;;;;;;;;;;;;;;;-146.27;100.00;64033.13;5048962;28;19912;-50
2022/06/21 11:57:32;;;;;;;;;;;;;;;-146.27;100.00;64033.13;5086478;28;19912;-50
2022/06/21 12:00:09;;;;;;;;;;;;;;;-146.27;100.00;64033.13;5091510;28;20007;-51
2022/06/21 12:02:52;;;;;;;;;;;;;;;-146.27;100.00;64033.13;5091203;28;20022;-51
2022/06/21 12:05:30;;;;;;;;;;;;;;;-146.27;100.00;64033.13;5091288;28;19916;-52
2022/06/21 12:07:58;;;;;;;;;;;;;;;-146.27;100.00;64033.13;5091120;28;20385;-53
2022/06/21 12:10:36;;;;;;;;;;;;;;;-146.27;100.00;64033.13;5090934;28;20006;-52
2022/06/21 12:13:13;;;;;;;;;;;;;;;-146.27;100.00;64033.13;5091346;28;19912;-52
2022/06/21 12:16:01;;;;;;;;;;;;;;;-146.27;100.00;64033.13;5091030;28;19918;-52
2022/06/21 12:18:30;;;;;;;;;;;;;;;-146.27;100.00;64033.13;5084812;28;19985;-51
2022/06/21 12:20:59;;;;;;;;;;;;;;;-146.27;100.00;64033.13;5101455;28;19912;-51
2022/06/21 12:23:27;;;;;;;;;;;;;;;-146.27;100.00;64033.13;5111146;28;19912;-52
2022/06/21 12:25:53;;;;;;;;;;;;;;;-146.27;100.00;64033.13;5110990;28;19923;-52
2022/06/21 12:28:20;;;;;;;;;;;;;;;-146.27;100.00;64033.13;5097940;28;19912;-51
2022/06/21 12:30:46;;;;;;;;;;;;;;;-146.27;100.00;64033.13;5090785;28;20368;-52
2022/06/21 12:33:13;;;;;;;;;;;;;;;-146.27;100.00;64033.13;5091064;28;20442;-49
2022/06/21 12:35:46;;;;;;;;;;;;;;;-146.27;100.00;64033.13;5090713;28;20418;-53
2022/06/21 12:38:18;;;;;;;;;;;;;;;-146.27;100.00;64033.13;5090931;28;19912;-52
2022/06/21 12:41:02;;;;;;;;;;;;;;;-146.27;100.00;64033.13;5090547;28;19913;-50
2022/06/21 12:43:33;;;;;;;;;;;;;;;-146.27;100.00;64033.13;5090746;28;19959;-51
2022/06/21 12:45:58;;;;;;;;;;;;;;;-146.27;100.00;64033.13;5090465;28;19939;-52
2022/06/21 12:48:44;;;;;;;;;;;;;;;-146.27;100.00;64033.13;5090736;28;20375;-51
2022/06/21 12:51:19;;;;;;;;;;;;;;;-146.27;100.00;64033.13;5090014;28;19939;-51
2022/06/21 12:53:47;;;;;;;;;;;;;;;-146.27;100.00;64033.13;5090742;28;19912;-50